createdAt,value
2018-07-14T07:06:43.751Z,60.70
2018-07-14T07:09:13.000Z,60.00
2018-07-14T07:11:41.761Z,60.30
2018-07-14T07:14:10.531Z,60.10
2018-07-14T07:16:39.961Z,59.70
2018-07-14T07:19:08.822Z,59.30
2018-07-14T07:21:38.863Z,59.10
2018-07-14T07:24:07.874Z,58.60
2018-07-14T07:26:37.080Z,59.30
2018-07-14T07:29:05.861Z,58.40
2018-07-14T07:31:35.370Z,58.90
2018-07-14T07:34:04.314Z,58.60
2018-07-14T07:36:33.572Z,59.60
2018-07-14T07:39:02.537Z,59.50
2018-07-14T07:41:31.941Z,59.90
2018-07-14T07:44:00.849Z,60.10
2018-07-14T07:46:30.078Z,59.70
2018-07-14T07:48:58.792Z,59.00
2018-07-14T07:51:27.585Z,58.60
2018-07-14T07:53:57.124Z,58.60
2018-07-14T07:56:25.998Z,58.30
2018-07-14T07:58:54.798Z,58.00
2018-07-14T08:01:23.845Z,57.90
2018-07-14T08:03:52.754Z,57.20
2018-07-14T08:06:21.622Z,57.30
2018-07-14T08:08:50.780Z,56.80
2018-07-14T08:11:20.145Z,57.10
2018-07-14T08:13:48.853Z,57.90
2018-07-14T08:16:17.679Z,57.90
2018-07-14T08:21:14.969Z,69.20
2018-07-14T08:26:12.657Z,61.70
2018-07-14T08:28:41.656Z,58.60
2018-07-14T08:31:10.518Z,59.20
2018-07-14T08:33:39.338Z,58.50
2018-07-14T08:36:08.281Z,58.50
2018-07-14T08:38:37.046Z,58.30
2018-07-14T08:41:06.029Z,58.30
2018-07-14T08:43:34.863Z,58.30
2018-07-14T08:48:32.198Z,58.50
2018-07-14T08:51:01.694Z,58.60
2018-07-14T08:53:30.569Z,59.30
2018-07-14T08:55:59.429Z,59.20
2018-07-14T08:58:28.251Z,58.90
2018-07-14T09:00:58.913Z,59.30
2018-07-14T09:03:27.742Z,59.20
2018-07-14T09:06:02.758Z,58.90
2018-07-14T09:08:31.537Z,58.90
2018-07-14T09:11:03.904Z,59.00
2018-07-14T09:13:33.047Z,58.70
2018-07-14T09:16:01.990Z,57.80
2018-07-14T09:18:30.779Z,58.10
2018-07-14T09:20:59.474Z,58.50
2018-07-14T09:23:28.145Z,58.30
2018-07-14T09:25:57.911Z,58.00
2018-07-14T09:28:26.664Z,58.10
2018-07-14T09:30:55.763Z,57.60
2018-07-14T09:33:25.265Z,57.60
2018-07-14T09:38:22.138Z,56.00
2018-07-14T09:40:51.375Z,56.70
2018-07-14T09:43:20.753Z,56.80
2018-07-14T09:45:49.544Z,56.70
2018-07-14T09:48:20.274Z,56.30
2018-07-14T09:50:54.079Z,56.10
2018-07-14T09:53:23.976Z,56.10
2018-07-14T09:55:54.828Z,55.60
2018-07-14T09:58:23.735Z,55.10
2018-07-14T10:00:58.328Z,55.40
2018-07-14T10:03:27.723Z,55.60
2018-07-14T10:05:56.641Z,53.90
2018-07-14T10:08:25.896Z,55.50
2018-07-14T10:10:54.689Z,54.00
2018-07-14T10:15:52.291Z,53.40
2018-07-14T10:18:21.209Z,53.10
2018-07-14T10:20:50.129Z,53.50
2018-07-14T10:23:19.268Z,53.90
2018-07-14T10:25:48.239Z,53.60
2018-07-14T10:28:17.308Z,54.10
2018-07-14T10:30:46.203Z,54.00
2018-07-14T10:33:15.086Z,53.60
2018-07-14T10:35:44.629Z,53.40
2018-07-14T10:38:13.553Z,53.10
2018-07-14T10:40:42.523Z,53.30
2018-07-14T10:43:12.058Z,52.20
2018-07-14T10:48:15.353Z,52.80
2018-07-14T10:50:44.132Z,52.90
2018-07-14T10:53:13.008Z,52.20
2018-07-14T10:55:41.900Z,51.30
2018-07-14T10:58:10.635Z,51.10
2018-07-14T11:00:39.415Z,51.50
2018-07-14T11:03:08.090Z,51.80
2018-07-14T11:05:36.746Z,52.10
2018-07-14T11:08:05.664Z,52.30
2018-07-14T11:10:35.744Z,51.90
2018-07-14T11:13:04.522Z,51.70
2018-07-14T11:18:01.585Z,53.40
2018-07-14T11:20:30.302Z,53.70
2018-07-14T11:22:58.962Z,54.00
2018-07-14T11:25:27.868Z,54.10
2018-07-14T11:27:56.806Z,54.10
2018-07-14T11:30:26.420Z,54.80
2018-07-14T11:32:55.276Z,55.00
2018-07-14T11:35:24.037Z,54.80
2018-07-14T11:37:52.811Z,54.80
2018-07-14T11:40:21.767Z,55.10
2018-07-14T11:42:50.567Z,54.50
2018-07-14T11:45:19.438Z,54.20
2018-07-14T11:47:48.451Z,54.50
2018-07-14T11:50:17.170Z,53.90
2018-07-14T11:52:45.975Z,53.80
2018-07-14T11:55:14.834Z,53.60
2018-07-14T11:57:43.742Z,53.10
2018-07-14T12:00:12.515Z,53.60
2018-07-14T12:02:41.673Z,53.80
2018-07-14T12:05:10.484Z,53.50
2018-07-14T12:07:39.809Z,53.50
2018-07-14T12:10:08.836Z,52.90
2018-07-14T12:12:37.845Z,53.50
2018-07-14T12:15:06.621Z,53.40
2018-07-14T12:17:35.468Z,53.50
2018-07-14T12:20:05.262Z,53.30
2018-07-14T12:22:34.547Z,53.20
2018-07-14T12:25:03.340Z,52.70
2018-07-14T12:27:32.108Z,52.80
2018-07-14T12:30:01.077Z,52.70
2018-07-14T12:32:30.070Z,52.10
2018-07-14T12:34:58.937Z,52.50
2018-07-14T12:37:28.383Z,51.80
2018-07-14T12:39:57.060Z,52.10
2018-07-14T12:42:25.684Z,52.50
2018-07-14T12:44:54.549Z,52.80
2018-07-14T12:47:23.487Z,52.80
2018-07-14T12:49:52.122Z,52.80
2018-07-14T12:52:20.929Z,53.20
2018-07-14T12:54:49.680Z,52.90
2018-07-14T13:02:15.125Z,53.20
2018-07-14T13:04:43.945Z,52.90
2018-07-14T13:07:12.742Z,53.50
2018-07-14T13:09:41.428Z,53.10
2018-07-14T13:12:11.167Z,51.80
2018-07-14T13:14:39.917Z,53.00
2018-07-14T13:17:08.709Z,52.30
2018-07-14T13:19:37.642Z,52.20
2018-07-14T13:22:06.345Z,51.80
2018-07-14T13:24:35.617Z,51.00
2018-07-14T13:27:04.527Z,51.20
2018-07-14T13:29:33.339Z,51.40
2018-07-14T13:32:02.235Z,51.30
2018-07-14T13:36:59.661Z,51.20
2018-07-14T13:39:29.454Z,50.90
2018-07-14T13:41:58.177Z,51.90
2018-07-14T13:44:26.912Z,51.20
2018-07-14T13:46:55.766Z,52.00
2018-07-14T13:49:25.407Z,51.50
2018-07-14T13:51:54.287Z,51.40
2018-07-14T13:54:23.340Z,52.00
2018-07-14T13:56:52.135Z,52.60
2018-07-14T13:59:21.260Z,52.80
2018-07-14T14:01:49.929Z,52.90
2018-07-14T14:04:19.076Z,53.30
2018-07-14T14:06:47.705Z,53.00
2018-07-14T14:09:16.771Z,52.70
2018-07-14T14:11:45.577Z,51.80
2018-07-14T14:14:14.337Z,51.60
2018-07-14T14:16:43.193Z,50.90
2018-07-14T14:19:11.914Z,51.00
2018-07-14T14:21:41.130Z,51.10
2018-07-14T14:24:09.836Z,51.70
2018-07-14T14:29:07.720Z,51.00
2018-07-14T14:31:36.519Z,52.60
2018-07-14T14:34:05.405Z,52.50
2018-07-14T14:36:34.658Z,52.70
2018-07-14T14:39:03.805Z,52.50
2018-07-14T14:41:32.659Z,52.20
2018-07-14T14:44:01.417Z,52.20
2018-07-14T14:46:30.221Z,52.40
2018-07-14T14:48:59.102Z,52.30
2018-07-14T14:51:28.717Z,52.40
2018-07-14T14:53:57.628Z,52.50
2018-07-14T14:58:55.373Z,51.50
2018-07-14T15:01:24.591Z,52.10
2018-07-14T15:03:53.433Z,51.90
2018-07-14T15:06:22.222Z,51.80
2018-07-14T15:08:51.178Z,52.10
2018-07-14T15:11:19.961Z,51.70
2018-07-14T15:13:48.701Z,52.00
2018-07-14T15:16:18.009Z,52.00
2018-07-14T15:18:47.269Z,51.90
2018-07-14T15:21:16.083Z,51.60
2018-07-14T15:23:44.900Z,51.80
2018-07-14T15:26:13.706Z,51.20
2018-07-14T15:28:42.416Z,50.30
2018-07-14T15:31:11.228Z,50.80
2018-07-14T15:33:39.974Z,49.20
2018-07-14T15:36:08.836Z,49.40
2018-07-14T15:38:38.567Z,49.40
2018-07-14T15:41:07.228Z,49.20
2018-07-14T15:43:36.021Z,49.50
2018-07-14T15:46:05.088Z,49.40
2018-07-14T15:48:34.300Z,49.20
2018-07-14T15:51:03.472Z,49.00
2018-07-14T15:53:32.800Z,49.30
2018-07-14T15:56:01.880Z,48.90
2018-07-14T15:58:30.959Z,48.90
2018-07-14T16:00:59.785Z,48.60
2018-07-14T16:03:29.243Z,49.20
2018-07-14T16:05:58.938Z,49.80
2018-07-14T16:08:28.090Z,50.00
2018-07-14T16:10:57.197Z,50.50
2018-07-14T16:13:26.696Z,50.50
2018-07-14T16:15:55.848Z,50.80
2018-07-14T16:18:25.291Z,50.20
2018-07-14T16:20:54.928Z,50.40
2018-07-14T16:23:23.852Z,50.90
2018-07-14T16:25:52.886Z,50.80
2018-07-14T16:28:23.095Z,51.30
2018-07-14T16:30:52.065Z,51.20
2018-07-14T16:33:21.151Z,51.10
2018-07-14T16:35:50.307Z,51.20
2018-07-14T16:38:19.985Z,50.80
2018-07-14T16:40:49.875Z,51.20
2018-07-14T16:43:18.640Z,50.90
2018-07-14T16:45:47.669Z,50.60
2018-07-14T16:48:16.491Z,51.40
2018-07-14T16:53:14.013Z,51.30
2018-07-14T16:55:42.853Z,50.80
2018-07-14T16:58:12.202Z,51.40
2018-07-14T17:00:40.897Z,51.50
2018-07-14T17:03:09.576Z,50.60
2018-07-14T17:05:38.685Z,50.90
2018-07-14T17:08:07.567Z,51.70
2018-07-14T17:20:29.809Z,60.50
2018-07-14T17:25:27.221Z,54.10
2018-07-14T17:37:49.577Z,60.50
2018-07-14T17:42:47.124Z,61.20
2018-07-14T17:47:44.242Z,61.50
2018-07-14T18:02:36.064Z,51.20
2018-07-14T18:05:04.921Z,51.80
2018-07-14T18:07:34.386Z,51.70
2018-07-14T18:10:03.161Z,51.60
2018-07-14T18:12:31.914Z,51.30
2018-07-14T18:15:00.700Z,51.50
2018-07-14T18:17:30.026Z,52.00
2018-07-14T18:19:58.688Z,52.40
2018-07-14T18:22:27.761Z,52.80
2018-07-14T18:24:56.445Z,53.10
2018-07-14T18:27:25.158Z,53.00
2018-07-14T18:29:53.916Z,52.50
2018-07-14T18:32:22.629Z,52.90
2018-07-14T18:34:52.120Z,52.60
2018-07-14T18:37:21.593Z,52.90
2018-07-14T18:39:50.362Z,52.70
2018-07-14T18:42:19.089Z,52.90
2018-07-14T18:44:47.984Z,52.30
2018-07-14T18:47:16.640Z,51.80
2018-07-14T18:49:45.353Z,51.50
2018-07-14T18:52:14.203Z,51.50
2018-07-14T18:54:42.975Z,52.10
2018-07-14T18:57:11.609Z,52.30
2018-07-14T18:59:40.297Z,52.30
2018-07-14T19:02:09.223Z,52.00
2018-07-14T19:04:37.896Z,52.30
2018-07-14T19:07:06.627Z,52.20
2018-07-14T19:09:35.458Z,52.70
2018-07-14T19:12:04.112Z,52.90
2018-07-14T19:14:32.947Z,53.10
2018-07-14T19:17:01.578Z,53.50
2018-07-14T19:19:30.363Z,53.60
2018-07-14T19:21:59.700Z,53.70
2018-07-14T19:24:28.581Z,53.50
2018-07-14T19:26:57.644Z,53.60
2018-07-14T19:29:26.553Z,54.00
2018-07-14T19:31:55.219Z,54.20
2018-07-14T19:34:24.197Z,54.40
2018-07-14T19:36:52.949Z,54.40
2018-07-14T19:39:21.799Z,54.70
2018-07-14T19:41:50.769Z,54.90
2018-07-14T19:44:19.571Z,55.50
2018-07-14T19:46:48.290Z,55.90
2018-07-14T19:49:17.256Z,56.20
2018-07-14T19:54:15.626Z,56.60
2018-07-14T19:56:44.397Z,56.50
2018-07-14T19:59:13.864Z,57.20
2018-07-14T20:01:43.724Z,56.40
2018-07-14T20:04:12.549Z,56.40
2018-07-14T20:06:41.317Z,56.30
2018-07-14T20:09:10.636Z,56.40
2018-07-14T20:11:39.474Z,56.50
2018-07-14T20:14:08.090Z,56.70
2018-07-14T20:16:36.883Z,56.80
2018-07-14T20:19:05.616Z,56.80
2018-07-14T20:21:34.286Z,56.60
2018-07-14T20:24:03.135Z,56.90
2018-07-14T20:26:31.895Z,56.90
2018-07-14T20:29:00.530Z,57.10
2018-07-14T20:31:29.254Z,57.40
2018-07-14T20:33:58.023Z,57.60
2018-07-14T20:36:27.478Z,57.70
2018-07-14T20:38:56.344Z,58.10
2018-07-14T20:41:25.147Z,58.10
2018-07-14T20:43:53.924Z,58.20
2018-07-14T20:46:22.708Z,58.40
2018-07-14T20:48:51.518Z,58.90
2018-07-14T20:51:20.184Z,58.80
2018-07-14T20:53:49.042Z,58.90
2018-07-14T20:56:18.090Z,59.30
2018-07-14T21:01:15.378Z,59.50
2018-07-14T21:03:44.145Z,59.40
2018-07-14T21:06:12.829Z,59.80
2018-07-14T21:11:10.097Z,60.50
2018-07-14T21:13:38.930Z,60.70
2018-07-14T21:16:07.913Z,61.10
2018-07-14T21:18:36.704Z,61.00
2018-07-14T21:21:05.632Z,61.10
2018-07-14T21:23:34.547Z,61.20
2018-07-14T21:26:03.166Z,61.20
2018-07-14T21:28:32.368Z,61.40
2018-07-14T21:31:01.095Z,61.50
2018-07-14T21:33:29.968Z,62.40
2018-07-14T21:35:58.698Z,61.90
2018-07-14T21:38:27.374Z,62.30
2018-07-14T21:40:56.139Z,62.40
2018-07-14T21:43:24.999Z,63.10
2018-07-14T21:45:53.925Z,62.80
2018-07-14T21:48:22.733Z,62.60
2018-07-14T21:50:51.438Z,62.60
2018-07-14T21:53:20.199Z,62.70
2018-07-14T21:55:48.970Z,62.70
2018-07-14T21:58:17.769Z,62.80
2018-07-14T22:03:20.337Z,63.20
2018-07-14T22:05:49.623Z,63.50
2018-07-14T22:08:18.730Z,63.70
2018-07-14T22:10:47.440Z,63.90
2018-07-14T22:15:44.604Z,64.40
2018-07-14T22:18:13.290Z,64.90
2018-07-14T22:20:41.927Z,65.30
2018-07-14T22:23:10.599Z,64.90
2018-07-14T22:25:39.376Z,65.30
2018-07-14T22:28:08.013Z,65.80
2018-07-14T22:30:36.879Z,65.50
2018-07-14T22:33:05.594Z,65.80
2018-07-14T22:35:34.314Z,65.90
2018-07-14T22:38:03.081Z,66.10
2018-07-14T22:40:31.873Z,66.00
2018-07-14T22:43:00.718Z,66.00
2018-07-14T22:45:29.526Z,66.60
2018-07-14T22:49:49.445Z,66.40
2018-07-14T22:52:18.600Z,66.60
2018-07-14T22:54:47.295Z,66.20
2018-07-14T22:57:16.233Z,66.10
2018-07-14T22:59:45.557Z,66.40
2018-07-14T23:02:15.647Z,67.00
2018-07-14T23:04:45.154Z,66.80
2018-07-14T23:07:13.864Z,67.10
2018-07-14T23:09:42.657Z,67.10
2018-07-14T23:12:11.406Z,67.10
2018-07-14T23:14:40.204Z,67.00
2018-07-14T23:17:10.059Z,67.10
2018-07-14T23:19:38.916Z,66.90
2018-07-14T23:22:08.960Z,67.00
2018-07-14T23:24:37.764Z,66.80
2018-07-14T23:27:06.427Z,66.50
2018-07-14T23:29:35.104Z,66.60
2018-07-14T23:32:04.697Z,67.10
2018-07-14T23:34:33.382Z,66.80
2018-07-14T23:37:02.060Z,66.90
2018-07-14T23:39:30.769Z,67.30
2018-07-14T23:42:00.323Z,67.30
2018-07-14T23:44:29.418Z,67.20
2018-07-14T23:46:58.590Z,67.50
2018-07-14T23:49:27.554Z,67.50
2018-07-14T23:51:57.034Z,67.70
2018-07-14T23:54:25.979Z,67.90
2018-07-14T23:56:55.763Z,68.50
2018-07-14T23:59:24.782Z,68.50
